Terminal Aerodrome Forecast
Issued by NWS

Home | Current Version | Previous Version | Text Only | Print | Product List | Glossary On
Versions: 1 2 3 4 5 6 7 8 9 10 11 12 13 14 15
000
FTAK31 PAJN 220700 AAA
TAFAJN
TAF AMD
PAJN 220705Z 2207/2306 08008KT P6SM BCFG VCSH SCT003 OVC030
     FM220900 08006KT 5SM -SHRA BR SCT005 OVC025
      TEMPO 2209/2213 3SM -RA BR OVC005
     FM221300 09005KT 5SM -RA VCFG SCT003 BKN020
     FM222300 10008KT P6SM BCFG VCSH SCT005 BKN030=

USA.gov is the U.S. government's official web portal to all federal, state and local government web resources and services.